createdAt,value
2023-04-28T00:02:39.914Z,12.55
2023-04-28T00:05:27.292Z,10.20
2023-04-28T00:08:17.504Z,13.38
2023-04-28T00:11:09.056Z,11.35
2023-04-28T00:13:56.394Z,9.73
2023-04-28T00:16:43.827Z,13.65
2023-04-28T00:19:31.183Z,8.88
2023-04-28T00:22:19.229Z,12.73
2023-04-28T00:25:07.133Z,12.13
2023-04-28T00:27:56.558Z,12.90
2023-04-28T00:30:43.684Z,13.13
2023-04-28T00:33:32.946Z,13.30
2023-04-28T00:36:20.092Z,14.57
2023-04-28T00:39:10.015Z,15.45
2023-04-28T00:41:59.605Z,11.98
2023-04-28T00:44:46.730Z,11.70
2023-04-28T00:47:35.044Z,11.75
2023-04-28T00:50:26.297Z,14.65
2023-04-28T00:53:14.199Z,13.65
2023-04-28T00:56:01.531Z,11.75
2023-04-28T00:58:49.393Z,7.07
2023-04-28T01:01:37.160Z,11.88
2023-04-28T01:04:24.830Z,8.55
2023-04-28T01:07:17.188Z,8.60
2023-04-28T01:10:04.553Z,17.48
2023-04-28T01:12:51.791Z,11.15
2023-04-28T01:15:43.518Z,13.38
2023-04-28T01:18:32.830Z,11.50
2023-04-28T01:21:32.479Z,9.88
2023-04-28T01:24:19.923Z,8.38
2023-04-28T01:27:09.686Z,11.40
2023-04-28T01:29:58.505Z,12.90
2023-04-28T01:32:45.898Z,11.77
2023-04-28T01:35:37.602Z,7.72
2023-04-28T01:38:27.251Z,9.05
2023-04-28T01:41:22.496Z,13.50
2023-04-28T01:44:09.758Z,10.80
2023-04-28T01:46:57.023Z,12.25
2023-04-28T01:49:44.354Z,12.95
2023-04-28T01:52:31.721Z,13.18
2023-04-28T01:55:21.584Z,11.20
2023-04-28T01:58:08.771Z,11.02
2023-04-28T02:00:55.951Z,11.30
2023-04-28T02:03:45.825Z,11.20
2023-04-28T02:06:33.520Z,11.57
2023-04-28T02:09:23.281Z,10.98
2023-04-28T02:12:10.529Z,8.43
2023-04-28T02:14:57.631Z,9.95
2023-04-28T02:17:45.209Z,10.98
2023-04-28T02:20:33.272Z,13.18
2023-04-28T02:23:20.613Z,10.25
2023-04-28T02:26:07.761Z,9.00
2023-04-28T02:28:54.991Z,9.02
2023-04-28T02:31:42.219Z,10.13
2023-04-28T02:34:29.471Z,8.07
2023-04-28T02:37:16.597Z,7.72
2023-04-28T02:40:06.132Z,7.90
2023-04-28T02:42:53.300Z,8.52
2023-04-28T02:45:40.601Z,10.85
2023-04-28T02:48:27.949Z,7.72
2023-04-28T02:51:17.585Z,10.38
2023-04-28T02:54:05.186Z,6.13
2023-04-28T02:56:52.390Z,8.05
2023-04-28T02:59:39.584Z,7.88
2023-04-28T03:02:29.237Z,5.93
2023-04-28T03:05:17.381Z,6.55
2023-04-28T03:08:04.929Z,7.18
2023-04-28T03:10:52.162Z,5.63
2023-04-28T03:13:39.296Z,5.70
2023-04-28T03:16:27.050Z,5.20
2023-04-28T03:19:14.256Z,7.57
2023-04-28T03:22:01.421Z,7.57
2023-04-28T03:24:49.647Z,8.20
2023-04-28T03:27:40.287Z,7.22
2023-04-28T03:30:30.020Z,7.28
2023-04-28T03:33:18.512Z,8.00
2023-04-28T03:36:05.947Z,5.45
2023-04-28T03:38:53.081Z,5.85
2023-04-28T03:41:40.255Z,6.60
2023-04-28T03:44:27.359Z,7.75
2023-04-28T03:47:14.705Z,6.68
2023-04-28T03:50:01.969Z,8.00
2023-04-28T03:52:49.288Z,6.45
2023-04-28T03:55:36.707Z,6.20
2023-04-28T03:58:23.868Z,5.85
2023-04-28T04:05:03.736Z,7.00
2023-04-28T04:07:51.155Z,5.32
2023-04-28T04:10:41.895Z,6.18
2023-04-28T04:13:33.694Z,6.22
2023-04-28T04:16:22.066Z,9.20
2023-04-28T04:19:09.399Z,7.15
2023-04-28T04:21:57.833Z,8.80
2023-04-28T04:24:47.728Z,8.65
2023-04-28T04:27:34.883Z,6.65
2023-04-28T04:30:22.316Z,8.52
2023-04-28T04:33:09.553Z,6.78
2023-04-28T04:35:56.921Z,8.88
2023-04-28T04:38:44.070Z,11.88
2023-04-28T04:41:31.488Z,7.55
2023-04-28T04:44:21.933Z,6.38
2023-04-28T04:47:09.177Z,11.35
2023-04-28T04:49:56.908Z,11.60
2023-04-28T04:52:46.690Z,12.02
2023-04-28T04:55:34.072Z,9.40
2023-04-28T04:58:21.508Z,10.02
2023-04-28T05:01:09.466Z,12.27
2023-04-28T05:03:57.110Z,15.90
2023-04-28T05:06:44.673Z,10.65
2023-04-28T05:09:33.956Z,12.82
2023-04-28T05:12:21.265Z,10.02
2023-04-28T05:15:09.163Z,13.57
2023-04-28T05:17:58.332Z,11.75
2023-04-28T05:20:46.535Z,15.32
2023-04-28T05:23:34.196Z,12.15
2023-04-28T05:26:21.463Z,13.27
2023-04-28T05:29:08.657Z,13.38
2023-04-28T05:32:16.219Z,11.40
2023-04-28T05:35:03.769Z,11.63
2023-04-28T05:37:52.658Z,12.68
2023-04-28T05:40:40.162Z,9.68
2023-04-28T05:43:31.325Z,13.32
2023-04-28T05:46:29.900Z,12.35
2023-04-28T05:49:17.645Z,15.60
2023-04-28T05:52:04.980Z,13.63
2023-04-28T05:54:52.103Z,11.95
2023-04-28T05:58:01.785Z,16.90
2023-04-28T06:01:11.562Z,12.77
2023-04-28T06:04:21.357Z,10.90
2023-04-28T06:07:32.478Z,15.40
2023-04-28T06:10:44.993Z,12.07
2023-04-28T06:13:50.877Z,10.27
2023-04-28T06:17:00.349Z,13.75
2023-04-28T06:20:59.485Z,11.50
2023-04-28T06:24:53.651Z,8.15
2023-04-28T06:28:46.305Z,9.32
2023-04-28T06:38:18.549Z,9.95
2023-04-28T06:41:06.178Z,12.75
2023-04-28T06:43:55.774Z,11.13
2023-04-28T06:46:50.539Z,7.25
2023-04-28T06:52:59.512Z,7.30
2023-04-28T06:55:46.769Z,10.75
2023-04-28T06:58:34.166Z,11.05
2023-04-28T07:01:24.760Z,9.10
2023-04-28T07:04:13.730Z,8.68
2023-04-28T07:07:07.830Z,6.85
2023-04-28T07:09:55.751Z,8.45
2023-04-28T07:12:43.112Z,10.13
2023-04-28T07:15:48.174Z,12.75
2023-04-28T07:18:38.498Z,7.60
2023-04-28T07:21:26.014Z,11.18
2023-04-28T07:24:13.353Z,7.82
2023-04-28T07:27:01.744Z,7.65
2023-04-28T07:29:49.184Z,9.02
2023-04-28T07:32:37.057Z,9.30
2023-04-28T07:35:24.907Z,12.48
2023-04-28T07:38:12.419Z,9.13
2023-04-28T07:40:59.963Z,12.45
2023-04-28T07:43:47.539Z,12.93
2023-04-28T07:46:35.552Z,11.52
2023-04-28T07:49:23.174Z,11.07
2023-04-28T07:52:10.732Z,13.88
2023-04-28T07:55:00.894Z,12.90
2023-04-28T07:57:49.646Z,11.85
2023-04-28T08:00:37.558Z,12.52
2023-04-28T08:03:26.883Z,15.27
2023-04-28T08:06:17.836Z,20.17
2023-04-28T08:09:07.833Z,18.98
2023-04-28T08:11:55.390Z,16.58
2023-04-28T08:14:42.906Z,18.02
2023-04-28T08:17:32.558Z,17.75
2023-04-28T08:20:24.669Z,19.30
2023-04-28T08:23:14.804Z,17.70
2023-04-28T08:26:02.311Z,17.90
2023-04-28T08:28:49.742Z,14.88
2023-04-28T08:31:37.173Z,22.63
2023-04-28T08:34:25.020Z,13.13
2023-04-28T08:37:15.179Z,14.95
2023-04-28T08:40:05.066Z,15.38
2023-04-28T08:42:52.677Z,15.10
2023-04-28T08:45:45.821Z,16.55
2023-04-28T08:48:48.823Z,13.52
2023-04-28T08:51:44.157Z,15.90
2023-04-28T08:54:32.930Z,14.18
2023-04-28T08:57:21.468Z,15.23
2023-04-28T09:00:09.945Z,12.95
2023-04-28T09:02:57.366Z,14.45
2023-04-28T09:05:45.196Z,12.95
2023-04-28T09:08:35.316Z,12.75
2023-04-28T09:11:23.924Z,12.50
2023-04-28T09:14:14.577Z,11.60
2023-04-28T09:17:03.925Z,15.40
2023-04-28T09:19:56.745Z,11.25
2023-04-28T09:22:44.280Z,10.20
2023-04-28T09:25:34.265Z,11.50
2023-04-28T09:28:22.553Z,8.98
2023-04-28T09:31:28.323Z,8.93
2023-04-28T09:34:18.679Z,9.13
2023-04-28T09:37:22.549Z,10.40
2023-04-28T09:40:13.472Z,7.30
2023-04-28T09:43:04.251Z,11.80
2023-04-28T09:46:06.250Z,7.65
2023-04-28T09:49:02.597Z,11.30
2023-04-28T09:51:52.741Z,5.05
2023-04-28T09:54:40.233Z,5.45
2023-04-28T09:57:32.796Z,2.85
2023-04-28T10:00:21.102Z,4.03
2023-04-28T10:03:10.809Z,2.08
2023-04-28T10:05:59.515Z,1.40
2023-04-28T10:08:48.732Z,0.75
2023-04-28T10:11:37.320Z,1.77
2023-04-28T10:14:24.844Z,1.77
2023-04-28T10:17:16.951Z,8.75
2023-04-28T10:20:05.614Z,0.93
2023-04-28T10:23:14.277Z,3.42
2023-04-28T10:26:10.852Z,0.98
2023-04-28T10:29:00.458Z,0.63
2023-04-28T10:32:23.712Z,1.58
2023-04-28T10:35:29.536Z,0.98
2023-04-28T10:38:17.716Z,1.58
2023-04-28T10:41:05.007Z,0.73
2023-04-28T10:43:52.540Z,2.50
2023-04-28T10:47:02.188Z,0.98
2023-04-28T10:49:56.794Z,0.68
2023-04-28T10:52:47.069Z,2.15
2023-04-28T10:55:40.042Z,0.80
2023-04-28T10:58:30.686Z,1.42
2023-04-28T11:01:21.946Z,3.55
2023-04-28T11:04:14.034Z,0.68
2023-04-28T11:07:13.935Z,0.82
2023-04-28T11:10:01.916Z,4.53
2023-04-28T11:13:27.319Z,1.10
2023-04-28T11:16:19.942Z,1.35
2023-04-28T11:19:10.732Z,1.80
2023-04-28T11:22:02.919Z,1.48
2023-04-28T11:25:01.731Z,3.45
2023-04-28T11:27:48.931Z,1.90
2023-04-28T11:30:36.250Z,2.00
2023-04-28T11:33:26.941Z,0.77
2023-04-28T11:36:46.018Z,1.35
2023-04-28T11:39:36.498Z,0.47
2023-04-28T11:42:26.351Z,0.50
2023-04-28T11:45:13.885Z,0.50
2023-04-28T11:48:20.588Z,0.70
2023-04-28T11:51:08.332Z,2.33
2023-04-28T11:53:55.967Z,0.77
2023-04-28T11:56:45.937Z,0.68
2023-04-28T11:59:36.910Z,0.75
2023-04-28T12:02:32.042Z,1.17
2023-04-28T12:05:24.635Z,3.00
2023-04-28T12:08:14.276Z,1.10
2023-04-28T12:11:11.697Z,1.60
2023-04-28T12:14:07.205Z,0.40
2023-04-28T12:16:54.657Z,1.15
2023-04-28T12:19:45.922Z,0.50
2023-04-28T12:22:44.467Z,0.45
2023-04-28T12:25:31.919Z,1.13
2023-04-28T12:28:19.292Z,0.77
2023-04-28T12:31:11.424Z,0.43
2023-04-28T12:34:01.136Z,0.60
2023-04-28T12:36:48.799Z,0.52
2023-04-28T12:39:39.771Z,0.80
2023-04-28T12:42:27.409Z,0.63
2023-04-28T12:45:20.921Z,1.00
2023-04-28T12:48:13.345Z,2.00
2023-04-28T12:51:04.311Z,1.23
2023-04-28T12:53:53.982Z,1.90
2023-04-28T12:56:41.324Z,1.75
2023-04-28T12:59:33.434Z,5.53
2023-04-28T13:02:21.365Z,1.75
2023-04-28T13:05:10.463Z,0.70
2023-04-28T13:07:58.172Z,1.55
2023-04-28T13:10:46.789Z,2.88
2023-04-28T13:13:39.177Z,4.15
2023-04-28T13:16:29.329Z,1.30
2023-04-28T13:19:19.703Z,0.32
2023-04-28T13:22:07.335Z,2.00
2023-04-28T13:24:58.683Z,1.75
2023-04-28T13:27:46.152Z,1.17
2023-04-28T13:30:34.814Z,0.90
2023-04-28T13:33:22.141Z,0.60
2023-04-28T13:36:09.739Z,1.73
2023-04-28T13:39:01.587Z,0.82
2023-04-28T13:41:53.015Z,0.90
2023-04-28T13:44:40.301Z,1.40
2023-04-28T13:47:28.426Z,4.68
2023-04-28T13:50:15.995Z,3.85
2023-04-28T13:53:05.854Z,1.65
2023-04-28T13:55:57.400Z,7.25
2023-04-28T13:58:51.332Z,1.33
2023-04-28T14:01:38.809Z,2.60
2023-04-28T14:04:26.291Z,1.83
2023-04-28T14:07:16.926Z,6.97
2023-04-28T14:10:07.427Z,4.72
2023-04-28T14:12:58.341Z,1.05
2023-04-28T14:15:57.912Z,0.85
2023-04-28T14:18:46.280Z,2.30
2023-04-28T14:21:34.094Z,4.53
2023-04-28T14:24:21.659Z,2.67
2023-04-28T14:27:10.188Z,1.48
2023-04-28T14:29:57.822Z,5.38
2023-04-28T14:32:45.064Z,2.17
2023-04-28T14:35:32.512Z,1.13
2023-04-28T14:38:19.786Z,1.23
2023-04-28T14:41:09.428Z,1.25
2023-04-28T14:44:02.887Z,2.13
2023-04-28T14:46:50.092Z,1.50
2023-04-28T14:49:39.630Z,1.73
2023-04-28T14:52:33.620Z,2.67
2023-04-28T14:55:20.845Z,2.15
2023-04-28T14:58:08.061Z,1.10
2023-04-28T15:00:55.371Z,1.17
2023-04-28T15:03:46.072Z,1.67
2023-04-28T15:06:34.177Z,2.10
2023-04-28T15:09:21.589Z,1.55
2023-04-28T15:12:12.021Z,2.22
2023-04-28T15:14:59.297Z,1.60
2023-04-28T15:17:48.968Z,0.95
2023-04-28T15:20:38.494Z,1.45
2023-04-28T15:23:25.752Z,0.70
2023-04-28T15:26:12.956Z,1.08
2023-04-28T15:29:02.368Z,1.20
2023-04-28T15:31:54.905Z,1.20
2023-04-28T15:34:44.500Z,3.78
2023-04-28T15:37:38.404Z,1.25
2023-04-28T15:40:37.160Z,1.42
2023-04-28T15:43:27.209Z,1.88
2023-04-28T15:46:20.055Z,0.85
2023-04-28T15:49:08.683Z,0.95
2023-04-28T15:51:55.849Z,2.85
2023-04-28T15:54:43.407Z,1.85
2023-04-28T15:57:30.866Z,1.40
2023-04-28T16:00:18.237Z,1.08
2023-04-28T16:03:06.221Z,1.75
2023-04-28T16:05:55.255Z,1.50
2023-04-28T16:08:42.973Z,3.40
2023-04-28T16:11:30.355Z,2.13
2023-04-28T16:14:19.870Z,3.00
2023-04-28T16:17:09.398Z,2.25
2023-04-28T16:19:57.033Z,3.63
2023-04-28T16:22:44.532Z,3.97
2023-04-28T16:25:32.168Z,2.03
2023-04-28T16:28:19.618Z,3.97
2023-04-28T16:31:10.197Z,2.22
2023-04-28T16:34:00.068Z,3.13
2023-04-28T16:36:47.469Z,1.88
2023-04-28T16:39:34.742Z,3.45
2023-04-28T16:42:22.695Z,1.90
2023-04-28T16:45:11.031Z,2.85
2023-04-28T16:47:58.317Z,2.78
2023-04-28T16:50:45.947Z,3.20
2023-04-28T16:53:33.202Z,3.92
2023-04-28T16:56:22.644Z,4.38
2023-04-28T16:59:09.966Z,5.25
2023-04-28T17:01:58.094Z,4.50
2023-04-28T17:04:45.618Z,3.00
2023-04-28T17:07:33.056Z,3.45
2023-04-28T17:10:20.298Z,2.28
2023-04-28T17:13:09.492Z,2.38
2023-04-28T17:15:58.141Z,5.90
2023-04-28T17:18:45.558Z,2.38
2023-04-28T17:21:35.973Z,2.47
2023-04-28T17:24:23.913Z,2.42
2023-04-28T17:27:12.203Z,4.55
2023-04-28T17:29:59.569Z,4.22
2023-04-28T17:32:47.039Z,6.60
2023-04-28T17:35:36.424Z,4.90
2023-04-28T17:38:24.325Z,3.30
2023-04-28T17:41:22.892Z,5.65
2023-04-28T17:44:10.240Z,2.65
2023-04-28T17:46:57.820Z,4.40
2023-04-28T17:49:47.418Z,2.33
2023-04-28T17:52:38.057Z,3.92
2023-04-28T17:55:28.207Z,3.80
2023-04-28T17:58:18.530Z,5.28
2023-04-28T18:01:07.974Z,6.40
2023-04-28T18:03:57.464Z,4.95
2023-04-28T18:06:44.949Z,4.82
2023-04-28T18:09:34.489Z,4.03
2023-04-28T18:12:22.555Z,5.53
2023-04-28T18:15:11.876Z,5.65
2023-04-28T18:18:01.844Z,4.22
2023-04-28T18:20:49.251Z,7.32
2023-04-28T18:23:36.496Z,3.30
2023-04-28T18:26:23.941Z,4.70
2023-04-28T18:29:15.432Z,5.22
2023-04-28T18:32:02.954Z,3.15
2023-04-28T18:34:50.780Z,2.83
2023-04-28T18:37:38.339Z,4.80
2023-04-28T18:40:26.421Z,3.38
2023-04-28T18:43:14.519Z,2.47
2023-04-28T18:46:04.744Z,4.00
2023-04-28T18:48:52.915Z,3.92
2023-04-28T18:51:49.148Z,4.40
2023-04-28T18:54:36.588Z,3.22
2023-04-28T18:57:24.260Z,4.90
2023-04-28T19:00:14.872Z,4.95
2023-04-28T19:03:02.971Z,3.75
2023-04-28T19:05:50.582Z,3.33
2023-04-28T19:08:42.857Z,4.65
2023-04-28T19:11:33.091Z,5.60
2023-04-28T19:14:20.943Z,4.60
2023-04-28T19:17:12.971Z,7.20
2023-04-28T19:20:00.571Z,7.97
2023-04-28T19:22:54.831Z,10.98
2023-04-28T19:25:43.054Z,6.03
2023-04-28T19:28:31.100Z,8.30
2023-04-28T19:31:18.636Z,5.63
2023-04-28T19:34:16.182Z,5.88
2023-04-28T19:37:13.052Z,4.72
2023-04-28T19:40:01.005Z,4.90
2023-04-28T19:42:48.764Z,11.23
2023-04-28T19:45:39.047Z,9.45
2023-04-28T19:48:28.909Z,11.13
2023-04-28T19:51:17.192Z,10.38
2023-04-28T19:54:04.659Z,13.13
2023-04-28T19:56:53.957Z,11.55
2023-04-28T19:59:43.850Z,9.80
2023-04-28T20:02:31.147Z,6.60
2023-04-28T20:05:20.466Z,9.55
2023-04-28T20:08:13.129Z,9.65
2023-04-28T20:13:48.986Z,5.32
2023-04-28T20:16:36.794Z,8.15
2023-04-28T20:19:26.513Z,10.32
2023-04-28T20:22:13.833Z,16.80
2023-04-28T20:25:05.969Z,20.02
2023-04-28T20:27:53.254Z,28.10
2023-04-28T20:30:44.700Z,46.85
2023-04-28T20:33:34.577Z,42.17
2023-04-28T20:36:24.058Z,37.08
2023-04-28T20:39:13.688Z,26.58
2023-04-28T20:42:02.095Z,23.38
2023-04-28T20:44:50.989Z,12.32
2023-04-28T20:47:38.296Z,11.95
2023-04-28T20:50:29.462Z,13.05
2023-04-28T20:53:17.009Z,17.50
2023-04-28T20:56:04.561Z,12.95
2023-04-28T20:58:51.815Z,13.07
2023-04-28T21:01:39.024Z,11.13
2023-04-28T21:04:26.591Z,23.02
2023-04-28T21:07:14.052Z,24.92
2023-04-28T21:10:03.813Z,17.95
2023-04-28T21:12:51.092Z,18.23
2023-04-28T21:15:39.600Z,19.38
2023-04-28T21:18:26.767Z,11.38
2023-04-28T21:21:14.614Z,13.85
2023-04-28T21:24:06.241Z,20.15
2023-04-28T21:26:55.831Z,14.45
2023-04-28T21:29:45.652Z,27.90
2023-04-28T21:32:33.498Z,18.77
2023-04-28T21:35:26.210Z,26.02
2023-04-28T21:41:03.160Z,12.85
2023-04-28T21:43:50.312Z,14.48
2023-04-28T21:46:40.027Z,12.52
2023-04-28T21:49:29.795Z,14.55
2023-04-28T21:52:20.944Z,11.82
2023-04-28T21:55:08.454Z,11.63
2023-04-28T21:58:00.134Z,12.50
2023-04-28T22:00:48.006Z,12.10
2023-04-28T22:03:36.570Z,14.23
2023-04-28T22:06:27.383Z,9.73
2023-04-28T22:09:17.199Z,14.23
2023-04-28T22:12:04.415Z,12.13
2023-04-28T22:14:51.557Z,11.18
2023-04-28T22:17:38.686Z,9.80
2023-04-28T22:20:28.255Z,9.10
2023-04-28T22:23:17.748Z,11.48
2023-04-28T22:26:04.926Z,12.02
2023-04-28T22:28:52.319Z,15.73
2023-04-28T22:31:42.151Z,12.15
2023-04-28T22:34:31.718Z,9.57
2023-04-28T22:37:20.475Z,11.27
2023-04-28T22:40:08.965Z,12.82
2023-04-28T22:42:58.418Z,9.95
2023-04-28T22:45:46.008Z,11.23
2023-04-28T22:48:35.436Z,9.75
2023-04-28T22:51:22.815Z,9.60
2023-04-28T22:54:12.546Z,8.75
2023-04-28T22:56:59.723Z,10.35
2023-04-28T22:59:46.886Z,10.43
2023-04-28T23:02:34.307Z,10.65
2023-04-28T23:05:24.639Z,10.25
2023-04-28T23:08:13.875Z,12.57
2023-04-28T23:11:01.845Z,9.70
2023-04-28T23:13:49.100Z,10.70
2023-04-28T23:16:36.561Z,10.10
2023-04-28T23:19:26.237Z,9.57
2023-04-28T23:22:13.542Z,7.53
2023-04-28T23:25:04.373Z,14.43
2023-04-28T23:27:54.283Z,10.18
2023-04-28T23:30:41.446Z,9.57
2023-04-28T23:33:29.858Z,8.45
2023-04-28T23:36:17.011Z,9.63
2023-04-28T23:39:04.382Z,10.77
2023-04-28T23:41:51.772Z,8.73
2023-04-28T23:44:38.935Z,12.02
2023-04-28T23:47:26.076Z,16.33
2023-04-28T23:50:13.726Z,9.98
2023-04-28T23:53:01.134Z,9.52
2023-04-28T23:55:48.736Z,13.57
2023-04-28T23:58:35.954Z,11.30
